Colchester, New York
Current Conditions -  °F | °C
As of 12:15 PM on Thursday 30 Oct 2014 (Local Time) from KMSV Reporting Station
Overcast Overcast  
Wind Chill: 42°   Ceiling: 3400
Heat Index: 46°   Visibility: 10mi
Dew Point: 36°   Wind: 9mph
Humidity: 66%   Direction: 290°WNW
Pressure: 30.01"   Gusts: NA
Location:  42.1536°N, 75.1637°W
Report Text: KMSV 301615Z AUTO 29008KT 270V330 10SM OVC034 08/02 A3001 RMK AO1
Loading
Personal Weather Stations






























Interactive Weather Map
Tropical Storm Tracking
New forecast layout! Learn more

10-Day Weather Forecast

Advertisements
Track Severe Weather on mobile